Time;durP1;ratioP1;P1;durP2;ratioP2;P2;SDS_P1;SDS_P2;PMS_P1;PMS_P2;Temp;Humidity;BMP_temperature;BMP_pressure;BME280_temperature;BME280_humidity;BME280_pressure;Samples;Min_cycle;Max_cycle;Signal;HPM_P1;HPM_P2
2021/12/26 00:01:25;;;;;;;3.88;1.70;;;;;;;-6.20;66.73;100988.66;10473474;28;20044;-80
2021/12/26 00:06:28;;;;;;;3.88;1.60;;;;;;;-6.17;65.08;100982.28;10456467;28;20036;-79
2021/12/26 00:11:30;;;;;;;3.70;1.23;;;;;;;-6.08;64.41;100985.66;10467339;28;20512;-79
2021/12/26 00:16:32;;;;;;;1.63;1.00;;;;;;;-6.10;64.47;100979.63;10475652;28;20043;-79
2021/12/26 00:21:33;;;;;;;3.47;1.48;;;;;;;-6.16;65.40;100981.56;10464201;28;20064;-79
2021/12/26 00:26:37;;;;;;;2.63;1.40;;;;;;;-6.20;66.44;100971.09;10474692;28;20155;-80
2021/12/26 00:31:39;;;;;;;2.85;1.55;;;;;;;-6.21;65.52;100975.19;10484161;28;20072;-78
2021/12/26 00:36:41;;;;;;;2.72;1.42;;;;;;;-6.17;64.74;100979.78;10446141;28;20049;-79
2021/12/26 00:41:44;;;;;;;4.32;1.67;;;;;;;-6.15;64.52;100970.78;10453165;28;20032;-79
2021/12/26 00:46:46;;;;;;;3.10;1.50;;;;;;;-6.20;64.62;100961.94;10455032;28;20052;-79
2021/12/26 00:51:50;;;;;;;3.08;1.70;;;;;;;-6.23;65.33;100979.22;10455150;28;20037;-79
2021/12/26 00:56:52;;;;;;;3.42;1.70;;;;;;;-6.35;66.91;100975.53;10437572;28;20136;-80
2021/12/26 01:01:55;;;;;;;6.20;1.80;;;;;;;-6.36;66.36;100964.63;10467111;28;20502;-79
2021/12/26 01:06:58;;;;;;;2.78;1.67;;;;;;;-6.39;66.33;100961.81;10473721;28;20098;-79
2021/12/26 01:12:10;;;;;;;3.85;1.55;;;;;;;-6.45;67.32;100964.66;10468268;28;20500;-80
2021/12/26 01:17:15;;;;;;;2.67;1.40;;;;;;;-6.41;66.62;100955.81;10452488;28;20091;-79
2021/12/26 01:22:37;;;;;;;2.20;1.52;;;;;;;-6.34;65.74;100952.22;10471779;28;20045;-79
2021/12/26 01:27:45;;;;;;;3.13;1.67;;;;;;;-6.31;65.06;100942.50;10459951;28;20040;-79
2021/12/26 01:32:48;;;;;;;3.35;1.73;;;;;;;-6.45;66.47;100946.22;10453994;28;20414;-79
2021/12/26 01:38:22;;;;;;;3.13;1.55;;;;;;;-6.46;66.04;100946.94;10460179;28;20053;-80
2021/12/26 01:43:46;;;;;;;3.23;1.70;;;;;;;-6.42;65.23;100938.97;10453629;28;20052;-80
2021/12/26 01:49:17;;;;;;;3.20;1.42;;;;;;;-6.49;66.92;100944.16;10455532;28;20062;-78
2021/12/26 01:54:36;;;;;;;3.58;1.85;;;;;;;-6.46;65.63;100942.81;10457822;28;20519;-79
2021/12/26 01:59:39;;;;;;;4.05;1.55;;;;;;;-6.44;65.89;100942.97;10454441;28;20503;-79
2021/12/26 02:04:51;;;;;;;3.58;1.30;;;;;;;-6.38;64.18;100936.91;10460428;28;20429;-80
2021/12/26 02:09:57;;;;;;;3.85;1.67;;;;;;;-6.50;66.71;100947.41;10459484;28;20124;-79
2021/12/26 02:15:00;;;;;;;3.30;1.33;;;;;;;-6.54;66.52;100948.75;10473884;28;20380;-80
2021/12/26 02:31:01;;;;;;;2.20;1.38;;;;;;;-6.54;65.93;100939.56;10495071;28;20127;-79
2021/12/26 02:36:07;;;;;;;2.13;1.10;;;;;;;-6.52;64.95;100934.72;10467135;28;20040;-79
2021/12/26 02:41:09;;;;;;;3.75;1.35;;;;;;;-6.55;64.81;100926.91;10475556;28;20036;-79
2021/12/26 02:52:50;;;;;;;2.90;1.20;;;;;;;-6.64;66.14;100921.03;10492334;28;20506;-78
2021/12/26 02:58:02;;;;;;;1.73;1.13;;;;;;;-6.68;66.84;100929.00;10480732;28;20114;-79
2021/12/26 03:03:06;;;;;;;2.33;1.48;;;;;;;-6.70;67.16;100926.31;10461930;28;20037;-79
2021/12/26 03:08:12;;;;;;;3.00;1.60;;;;;;;-6.76;66.39;100926.66;10457991;28;20131;-79
2021/12/26 03:13:15;;;;;;;4.45;1.80;;;;;;;-6.72;66.54;100927.81;10481680;28;20051;-79
2021/12/26 03:18:20;;;;;;;3.40;1.35;;;;;;;-6.78;66.08;100919.72;10483924;28;20037;-79
2021/12/26 03:23:26;;;;;;;2.28;1.30;;;;;;;-6.73;66.27;100911.88;10469824;28;20036;-80
2021/12/26 03:28:28;;;;;;;2.38;1.10;;;;;;;-6.76;66.92;100908.22;10464542;28;20068;-80
2021/12/26 03:33:30;;;;;;;2.70;1.23;;;;;;;-6.78;66.38;100914.72;10449766;28;20407;-79
2021/12/26 03:38:33;;;;;;;2.42;1.05;;;;;;;-6.64;64.53;100906.00;10478267;28;20045;-80
2021/12/26 03:43:49;;;;;;;1.92;1.20;;;;;;;-6.74;66.06;100907.63;10483252;28;20048;-79
2021/12/26 03:48:52;;;;;;;2.53;1.45;;;;;;;-6.70;65.21;100912.19;10452807;28;20051;-80
2021/12/26 03:53:54;;;;;;;5.90;1.70;;;;;;;-6.76;66.45;100891.56;10464435;28;20056;-79
2021/12/26 03:58:58;;;;;;;3.17;1.20;;;;;;;-6.71;65.31;100897.91;10463856;28;20052;-79
2021/12/26 04:04:00;;;;;;;2.22;1.30;;;;;;;-6.74;66.53;100889.19;10468053;28;20049;-80
2021/12/26 04:09:08;;;;;;;4.10;1.23;;;;;;;-6.70;65.24;100897.16;10461868;28;20045;-80
2021/12/26 04:14:11;;;;;;;3.25;1.70;;;;;;;-6.74;65.74;100890.06;10460629;28;20054;-80
2021/12/26 04:19:14;;;;;;;1.58;1.00;;;;;;;-6.75;65.67;100884.94;10451388;28;20139;-80
2021/12/26 04:24:15;;;;;;;3.10;1.48;;;;;;;-6.73;65.80;100875.94;10486011;28;20071;-81
2021/12/26 04:29:17;;;;;;;1.30;0.95;;;;;;;-6.79;67.25;100876.25;10448352;28;20407;-79
2021/12/26 04:34:20;;;;;;;2.47;1.20;;;;;;;-6.68;64.93;100877.25;10476568;28;20140;-79
2021/12/26 04:39:22;;;;;;;2.53;1.35;;;;;;;-6.64;63.89;100895.97;10483931;28;20546;-79
2021/12/26 04:44:26;;;;;;;3.83;1.33;;;;;;;-6.76;65.37;100895.69;10467554;28;20518;-79
2021/12/26 04:49:46;;;;;;;3.58;1.40;;;;;;;-6.71;64.13;100872.84;10481743;28;20036;-78
2021/12/26 04:54:50;;;;;;;1.92;1.15;;;;;;;-6.75;65.37;100868.28;10477511;28;20048;-79
2021/12/26 04:59:52;;;;;;;3.40;1.13;;;;;;;-6.82;66.13;100878.47;10466758;28;20071;-79
2021/12/26 05:04:56;;;;;;;3.22;1.25;;;;;;;-6.83;66.03;100879.22;10469485;28;20539;-80
2021/12/26 05:09:58;;;;;;;4.35;1.60;;;;;;;-6.80;66.03;100876.09;10457863;28;20052;-79
2021/12/26 05:15:02;;;;;;;3.55;1.70;;;;;;;-6.83;65.46;100874.19;10456614;28;20048;-79
2021/12/26 05:20:05;;;;;;;3.47;1.55;;;;;;;-6.84;66.99;100857.41;10487129;28;20047;-79
2021/12/26 05:25:07;;;;;;;2.80;1.30;;;;;;;-6.83;66.89;100859.16;10480102;28;20036;-81
2021/12/26 05:30:12;;;;;;;2.45;1.48;;;;;;;-6.73;66.49;100849.25;10447376;28;20450;-80
2021/12/26 05:35:17;;;;;;;1.80;1.17;;;;;;;-6.69;66.44;100845.41;10460322;28;20056;-80
2021/12/26 05:40:19;;;;;;;2.65;1.15;;;;;;;-6.65;66.21;100844.97;10458870;28;20060;-79
2021/12/26 05:45:21;;;;;;;2.33;1.33;;;;;;;-6.59;66.62;100839.66;10457068;28;20055;-80
2021/12/26 05:50:42;;;;;;;2.08;1.33;;;;;;;-6.45;66.61;100838.41;10483586;28;20098;-80
2021/12/26 05:56:04;;;;;;;3.47;1.38;;;;;;;-6.21;65.78;100834.75;10484098;28;20092;-80
2021/12/26 06:01:07;;;;;;;3.78;1.52;;;;;;;-6.01;63.98;100823.19;10455597;28;20045;-80
2021/12/26 06:06:10;;;;;;;3.85;1.30;;;;;;;-5.92;64.15;100839.91;10464946;28;20492;-80
2021/12/26 06:11:17;;;;;;;2.53;1.33;;;;;;;-5.79;64.19;100834.38;10465067;28;20037;-80
2021/12/26 06:16:21;;;;;;;3.28;1.50;;;;;;;-5.66;63.78;100833.81;10460170;28;20049;-79
2021/12/26 06:21:23;;;;;;;3.55;1.77;;;;;;;-5.55;63.73;100836.44;10442961;28;20041;-80
2021/12/26 06:26:46;;;;;;;6.03;1.27;;;;;;;-5.49;62.87;100835.34;10462628;28;20053;-80
2021/12/26 06:32:08;;;;;;;2.65;1.52;;;;;;;-5.39;63.18;100826.09;10469604;28;20045;-80
2021/12/26 06:37:33;;;;;;;4.90;1.40;;;;;;;-5.32;63.51;100823.38;10476336;28;20098;-80
2021/12/26 06:42:53;;;;;;;2.03;1.27;;;;;;;-5.30;63.10;100814.38;10483667;28;20403;-78
2021/12/26 06:48:13;;;;;;;3.47;1.55;;;;;;;-5.28;62.49;100811.22;10463106;28;20049;-77
2021/12/26 06:53:21;;;;;;;3.60;1.70;;;;;;;-5.23;62.96;100816.66;10442120;28;20052;-77
2021/12/26 06:58:23;;;;;;;4.30;1.40;;;;;;;-5.21;63.73;100815.19;10447836;28;20048;-78
2021/12/26 07:03:24;;;;;;;4.97;1.70;;;;;;;-5.22;61.29;100818.44;10458885;28;20045;-77
2021/12/26 07:08:26;;;;;;;2.90;1.42;;;;;;;-5.24;61.43;100817.41;10464244;28;20546;-77
2021/12/26 07:13:30;;;;;;;3.67;1.70;;;;;;;-5.28;62.48;100820.41;10459484;28;20033;-77
2021/12/26 07:18:32;;;;;;;4.05;1.40;;;;;;;-5.28;63.21;100820.41;10458970;28;20118;-77
2021/12/26 07:23:35;;;;;;;2.10;1.13;;;;;;;-5.32;63.64;100825.91;10477697;28;20521;-77
2021/12/26 07:28:44;;;;;;;3.08;1.40;;;;;;;-5.40;62.93;100816.84;10474515;28;20098;-78
2021/12/26 07:33:52;;;;;;;8.55;1.85;;;;;;;-5.48;64.69;100822.06;10445981;28;20509;-78
2021/12/26 07:38:59;;;;;;;3.45;1.63;;;;;;;-5.51;64.46;100819.25;10458485;28;20041;-78
2021/12/26 07:44:05;;;;;;;2.90;1.58;;;;;;;-5.59;66.06;100825.22;10453499;28;20399;-78
2021/12/26 07:49:36;;;;;;;3.35;1.60;;;;;;;-5.69;65.55;100832.66;10467762;28;20558;-79
2021/12/26 07:54:56;;;;;;;4.25;1.77;;;;;;;-5.75;67.17;100828.88;10481507;28;20045;-78
2021/12/26 08:00:18;;;;;;;4.35;1.85;;;;;;;-5.79;66.19;100823.44;10477822;28;20044;-78
2021/12/26 08:05:29;;;;;;;2.65;1.58;;;;;;;-5.80;68.12;100824.19;10487559;28;20053;-77
2021/12/26 08:10:54;;;;;;;3.25;1.63;;;;;;;-5.89;69.08;100829.25;10458117;28;20095;-77
2021/12/26 08:15:56;;;;;;;3.70;1.63;;;;;;;-5.91;68.52;100830.75;10465632;28;20044;-78
2021/12/26 08:20:58;;;;;;;4.00;2.00;;;;;;;-5.92;69.35;100819.84;10488499;28;20033;-78
2021/12/26 08:26:00;;;;;;;3.90;1.80;;;;;;;-5.92;68.75;100821.47;10483003;28;20091;-77
2021/12/26 08:31:03;;;;;;;3.83;2.13;;;;;;;-5.88;69.46;100830.16;10466186;28;20037;-78
2021/12/26 08:36:05;;;;;;;4.13;2.10;;;;;;;-5.69;70.00;100827.66;10451186;28;20079;-77
2021/12/26 08:41:07;;;;;;;4.07;1.95;;;;;;;-5.55;68.03;100824.78;10468161;28;20555;-78
2021/12/26 08:46:11;;;;;;;4.38;2.05;;;;;;;-5.43;66.42;100830.88;10470918;28;20040;-78
2021/12/26 08:51:13;;;;;;;2.95;1.75;;;;;;;-5.27;67.68;100829.72;10473792;28;20120;-77
2021/12/26 08:56:14;;;;;;;3.45;1.92;;;;;;;-5.14;67.54;100812.44;10464489;28;20059;-77
2021/12/26 09:01:16;;;;;;;2.90;1.75;;;;;;;-5.03;67.75;100825.06;10481484;28;20037;-77
2021/12/26 09:06:18;;;;;;;5.93;2.03;;;;;;;-4.93;67.73;100815.06;10470042;28;20135;-77
2021/12/26 09:11:19;;;;;;;4.50;2.05;;;;;;;-4.84;67.88;100822.53;10455179;28;20551;-79
2021/12/26 09:16:21;;;;;;;3.40;2.00;;;;;;;-4.75;67.24;100819.91;10467969;28;20048;-77
2021/12/26 09:21:23;;;;;;;4.38;2.58;;;;;;;-4.68;68.00;100814.66;10476912;28;20488;-77
2021/12/26 09:26:26;;;;;;;4.10;2.20;;;;;;;-4.63;66.69;100813.41;10474750;28;20530;-77
2021/12/26 09:31:27;;;;;;;4.35;2.15;;;;;;;-4.43;68.97;100810.06;10452881;28;20389;-78
2021/12/26 09:36:29;;;;;;;5.50;2.45;;;;;;;-4.30;66.32;100810.34;10473153;28;20048;-77
2021/12/26 09:41:31;;;;;;;5.00;2.50;;;;;;;-4.05;67.86;100812.41;10481437;28;20037;-79
2021/12/26 09:46:35;;;;;;;6.95;2.47;;;;;;;-4.06;66.85;100809.75;10465810;28;20044;-78
2021/12/26 09:51:40;;;;;;;5.35;2.70;;;;;;;-3.96;66.79;100804.72;10506044;28;20051;-77
2021/12/26 09:56:41;;;;;;;5.50;2.70;;;;;;;-3.88;67.09;100803.72;10506197;28;20048;-77
2021/12/26 10:01:52;;;;;;;6.45;2.78;;;;;;;-3.78;67.24;100800.31;10488072;28;20043;-76
2021/12/26 10:07:21;;;;;;;5.63;2.60;;;;;;;-3.62;67.61;100794.00;10525165;28;20548;-77
2021/12/26 10:12:23;;;;;;;8.20;3.17;;;;;;;-3.54;68.02;100791.34;10538822;28;20055;-77
2021/12/26 10:17:27;;;;;;;6.72;2.83;;;;;;;-3.44;66.88;100779.47;10538731;28;20052;-77
2021/12/26 10:22:29;;;;;;;6.68;3.13;;;;;;;-3.33;66.81;100773.69;10503301;28;20043;-77
2021/12/26 10:27:32;;;;;;;5.65;2.92;;;;;;;-3.27;67.14;100766.59;10479934;28;20077;-78
2021/12/26 10:39:19;;;;;;;6.18;3.17;;;;;;;-3.02;66.88;100766.03;10454826;28;20045;-76
2021/12/26 10:44:34;;;;;;;5.63;2.75;;;;;;;-2.99;65.46;100761.19;10470520;28;20183;-77
2021/12/26 10:49:40;;;;;;;6.82;3.22;;;;;;;-2.75;65.88;100751.25;10498740;28;20040;-78
2021/12/26 10:54:47;;;;;;;8.05;4.03;;;;;;;-2.41;65.51;100756.34;10504482;28;20049;-77
2021/12/26 11:00:12;;;;;;;7.97;2.97;;;;;;;-2.00;66.03;100743.41;10488641;28;20054;-78
2021/12/26 11:05:38;;;;;;;10.07;4.20;;;;;;;-1.40;65.16;100734.25;10514918;28;20056;-76
2021/12/26 11:10:50;;;;;;;6.20;3.58;;;;;;;-1.45;63.87;100730.47;10504814;28;20123;-76
2021/12/26 11:16:06;;;;;;;6.60;3.60;;;;;;;-1.19;64.11;100726.41;10504960;28;20036;-77
2021/12/26 11:21:13;;;;;;;9.50;3.78;;;;;;;-0.88;64.18;100715.91;10504430;28;20041;-76
2021/12/26 11:26:20;;;;;;;7.70;3.40;;;;;;;-0.98;64.09;100711.88;10503313;28;20048;-76
2021/12/26 11:31:27;;;;;;;7.47;3.85;;;;;;;-0.34;63.10;100707.78;10504529;28;20032;-77
2021/12/26 11:36:32;;;;;;;5.82;3.85;;;;;;;-0.11;62.52;100695.72;10504076;28;20136;-77
2021/12/26 11:42:12;;;;;;;8.40;3.53;;;;;;;-0.09;62.54;100694.19;10416700;28;20085;-77
2021/12/26 11:47:57;;;;;;;6.32;3.92;;;;;;;0.41;62.58;100687.22;10446925;28;20059;-77
2021/12/26 11:53:54;;;;;;;7.25;4.10;;;;;;;0.44;61.56;100685.75;10497479;28;20049;-77
2021/12/26 11:59:12;;;;;;;8.35;4.15;;;;;;;0.59;61.03;100687.50;10472639;28;20041;-78
2021/12/26 12:10:52;;;;;;;6.78;3.97;;;;;;;0.64;62.72;100675.97;10500360;28;20028;-78
2021/12/26 12:15:58;;;;;;;7.53;4.20;;;;;;;0.78;61.97;100679.38;10501029;28;20514;-78
2021/12/26 12:21:18;;;;;;;8.88;4.22;;;;;;;1.07;61.16;100673.53;10502262;28;20115;-79
2021/12/26 12:26:53;;;;;;;9.00;4.47;;;;;;;1.05;61.25;100670.00;10494655;28;20487;-78
2021/12/26 12:32:07;;;;;;;9.43;4.20;;;;;;;0.71;62.43;100664.56;10470571;28;20049;-83
2021/12/26 12:37:41;;;;;;;6.20;3.70;;;;;;;0.18;63.90;100658.75;10480529;28;20166;-82
2021/12/26 12:42:58;;;;;;;7.28;3.63;;;;;;;-0.40;65.76;100650.78;10456441;28;20048;-81
2021/12/26 12:48:28;;;;;;;7.22;4.07;;;;;;;-0.27;67.21;100649.94;10453001;28;20075;-82
2021/12/26 12:53:43;;;;;;;6.85;3.95;;;;;;;-0.42;67.80;100642.19;10484241;28;20060;-82
2021/12/26 12:58:45;;;;;;;9.05;4.43;;;;;;;-0.26;68.37;100649.19;10465641;28;20087;-82
2021/12/26 13:03:57;;;;;;;8.85;4.60;;;;;;;-0.42;67.64;100638.03;10465287;28;20045;-81
2021/12/26 13:08:59;;;;;;;6.75;3.97;;;;;;;-0.40;68.59;100636.47;10475919;28;20041;-81
2021/12/26 13:14:00;;;;;;;9.93;4.72;;;;;;;-0.32;68.42;100635.31;10478114;28;20039;-82
2021/12/26 13:19:07;;;;;;;6.80;4.40;;;;;;;-0.41;69.24;100637.22;10479043;28;20044;-81
2021/12/26 13:24:08;;;;;;;7.82;4.53;;;;;;;-0.54;69.19;100627.97;10477940;28;20044;-81
2021/12/26 13:29:11;;;;;;;9.55;4.82;;;;;;;-0.35;69.60;100626.63;10465474;28;20056;-81
2021/12/26 13:34:13;;;;;;;9.55;5.15;;;;;;;-0.34;69.59;100625.88;10480161;28;20052;-82
2021/12/26 13:39:24;;;;;;;7.85;4.55;;;;;;;-0.45;70.25;100617.56;10448431;28;20048;-82
2021/12/26 13:44:26;;;;;;;10.40;5.53;;;;;;;-0.40;70.28;100610.28;10504837;28;20041;-81
2021/12/26 13:49:27;;;;;;;9.73;5.00;;;;;;;-0.40;70.87;100601.03;10466344;28;20040;-81
2021/12/26 13:54:38;;;;;;;11.27;4.90;;;;;;;-0.41;70.75;100594.19;10475887;28;20055;-81
2021/12/26 13:59:42;;;;;;;8.27;4.82;;;;;;;-0.36;71.87;100597.03;10483643;28;20506;-82
2021/12/26 14:04:51;;;;;;;8.52;5.05;;;;;;;-0.42;71.35;100597.53;10470599;28;20048;-83
2021/12/26 14:10:00;;;;;;;9.45;4.93;;;;;;;-0.38;72.09;100598.63;10468665;28;20032;-81
2021/12/26 14:15:28;;;;;;;9.77;5.70;;;;;;;-0.41;71.70;100601.81;10464607;28;20044;-82
2021/12/26 14:20:51;;;;;;;8.70;4.90;;;;;;;-0.36;72.51;100603.00;10472623;28;20494;-82
2021/12/26 14:25:59;;;;;;;8.90;5.07;;;;;;;-0.46;72.52;100598.09;10465048;28;20492;-82
2021/12/26 14:31:01;;;;;;;9.07;5.15;;;;;;;-0.53;72.99;100588.34;10456524;28;20438;-82
2021/12/26 14:36:08;;;;;;;9.07;5.22;;;;;;;-0.53;73.47;100589.25;10460517;28;20118;-82
2021/12/26 14:41:09;;;;;;;10.18;5.68;;;;;;;-0.51;73.51;100589.34;10460355;28;20040;-82
2021/12/26 14:46:14;;;;;;;10.25;6.03;;;;;;;-0.48;73.75;100587.00;10483230;28;20048;-81
2021/12/26 14:51:19;;;;;;;10.10;5.72;;;;;;;-0.49;74.05;100585.25;10485110;28;20054;-82
2021/12/26 14:56:22;;;;;;;8.73;5.60;;;;;;;-0.54;74.49;100582.44;10456651;28;20052;-82
2021/12/26 15:01:31;;;;;;;10.02;6.10;;;;;;;-0.54;73.92;100581.53;10446985;28;20045;-81
2021/12/26 15:06:53;;;;;;;10.48;5.75;;;;;;;-0.53;74.47;100574.06;10490268;28;20047;-82
2021/12/26 15:11:54;;;;;;;10.55;6.03;;;;;;;-0.53;74.69;100563.06;10462679;28;20053;-82
2021/12/26 15:16:57;;;;;;;12.15;6.40;;;;;;;-0.54;74.94;100572.31;10494412;28;20064;-82
2021/12/26 15:22:04;;;;;;;17.90;6.85;;;;;;;-0.52;75.27;100570.72;10456590;28;20040;-82
2021/12/26 15:27:06;;;;;;;12.18;6.43;;;;;;;-0.55;75.31;100564.59;10499901;28;20472;-82
2021/12/26 15:32:10;;;;;;;14.05;6.72;;;;;;;-0.54;75.20;100556.22;10486581;28;20060;-82
2021/12/26 15:37:14;;;;;;;13.25;6.35;;;;;;;-0.53;76.40;100558.00;10473784;28;20060;-81
2021/12/26 15:42:18;;;;;;;13.38;5.95;;;;;;;-0.51;76.08;100556.44;10469722;28;20044;-81
2021/12/26 15:47:19;;;;;;;14.32;6.43;;;;;;;-0.54;76.12;100561.28;10467176;28;20048;-81
2021/12/26 15:52:21;;;;;;;12.30;6.57;;;;;;;-0.58;76.43;100554.28;10438935;28;20047;-81
2021/12/26 15:57:23;;;;;;;13.70;7.07;;;;;;;-0.60;76.31;100555.84;10456705;28;20052;-82
2021/12/26 16:02:27;;;;;;;12.48;6.78;;;;;;;-0.65;76.31;100556.44;10460423;28;20561;-81
2021/12/26 16:07:29;;;;;;;12.02;6.63;;;;;;;-0.68;77.07;100553.69;10448657;28;20072;-82
2021/12/26 16:12:31;;;;;;;13.32;6.85;;;;;;;-0.74;76.74;100549.88;10442021;28;20080;-82
2021/12/26 16:17:32;;;;;;;15.57;7.82;;;;;;;-0.70;76.58;100555.22;10474530;28;20033;-81
2021/12/26 16:22:38;;;;;;;15.52;7.75;;;;;;;-0.66;76.41;100551.25;10452743;28;20064;-81
2021/12/26 16:27:43;;;;;;;12.40;7.03;;;;;;;-0.68;76.82;100550.28;10466288;28;20045;-81
2021/12/26 16:32:45;;;;;;;11.20;7.10;;;;;;;-0.68;76.26;100543.56;10489178;28;20057;-82
2021/12/26 16:37:52;;;;;;;14.88;7.18;;;;;;;-0.67;77.95;100544.47;10469611;28;20389;-81
2021/12/26 16:42:56;;;;;;;15.00;7.88;;;;;;;-0.65;77.61;100543.78;10495026;28;20067;-82
2021/12/26 16:47:57;;;;;;;14.73;7.47;;;;;;;-0.63;77.25;100538.81;10457842;28;20061;-81
2021/12/26 16:52:59;;;;;;;13.80;7.32;;;;;;;-0.68;78.07;100538.50;10457907;28;20410;-81
2021/12/26 16:58:02;;;;;;;12.93;7.68;;;;;;;-0.61;77.88;100541.44;10464828;28;20372;-81
2021/12/26 17:03:05;;;;;;;14.65;7.78;;;;;;;-0.59;78.34;100532.28;10469662;28;20045;-82
2021/12/26 17:08:08;;;;;;;17.17;7.82;;;;;;;-0.60;78.12;100522.94;10467665;28;20078;-81
2021/12/26 17:13:31;;;;;;;17.27;8.10;;;;;;;-0.61;78.50;100513.59;10475588;28;20028;-81
2021/12/26 17:18:33;;;;;;;14.52;7.82;;;;;;;-0.57;78.53;100505.44;10455179;28;20041;-81
2021/12/26 17:23:35;;;;;;;14.32;8.27;;;;;;;-0.55;78.63;100519.94;10453527;28;20135;-81
2021/12/26 17:28:38;;;;;;;17.77;8.13;;;;;;;-0.54;78.67;100510.69;10458619;28;20048;-81
2021/12/26 17:33:39;;;;;;;14.50;7.93;;;;;;;-0.53;79.32;100512.44;10466994;28;20044;-81
2021/12/26 17:38:42;;;;;;;15.48;8.32;;;;;;;-0.54;80.14;100503.09;10444243;28;20048;-81
2021/12/26 17:43:43;;;;;;;16.10;8.60;;;;;;;-0.48;79.64;100516.13;10452984;28;20051;-80
2021/12/26 17:48:45;;;;;;;14.57;8.48;;;;;;;-0.44;79.97;100509.59;10441770;28;20040;-81
2021/12/26 17:53:48;;;;;;;15.88;7.80;;;;;;;-0.45;80.08;100501.16;10492620;28;20048;-81
2021/12/26 17:58:50;;;;;;;18.50;9.38;;;;;;;-0.43;80.29;100498.72;10497827;28;20508;-82
2021/12/26 18:03:51;;;;;;;17.42;8.98;;;;;;;-0.45;80.92;100498.63;10476220;28;20132;-81
2021/12/26 18:08:53;;;;;;;19.77;9.57;;;;;;;-0.41;81.02;100481.97;10442852;28;20492;-82
2021/12/26 18:13:55;;;;;;;17.05;8.93;;;;;;;-0.37;80.85;100489.88;10471245;28;20405;-81
2021/12/26 18:18:56;;;;;;;17.65;9.38;;;;;;;-0.34;81.10;100494.25;10441106;28;20045;-81
2021/12/26 18:23:59;;;;;;;16.25;8.95;;;;;;;-0.31;81.55;100499.50;10443025;28;20413;-81
2021/12/26 18:29:02;;;;;;;17.67;9.15;;;;;;;-0.34;81.67;100490.06;10422001;28;20045;-81
2021/12/26 18:34:04;;;;;;;17.83;9.43;;;;;;;-0.30;81.29;100475.06;10448987;28;20411;-80
2021/12/26 18:39:07;;;;;;;21.45;9.45;;;;;;;-0.32;81.78;100472.44;10423516;28;20052;-80
2021/12/26 18:44:09;;;;;;;22.13;10.25;;;;;;;-0.33;81.60;100466.47;10464851;28;20506;-81
2021/12/26 18:49:13;;;;;;;19.10;10.10;;;;;;;-0.33;82.21;100461.41;10463563;28;20044;-81
2021/12/26 18:54:15;;;;;;;17.08;9.48;;;;;;;-0.24;82.24;100467.84;10482751;28;20041;-81
2021/12/26 18:59:17;;;;;;;17.73;9.95;;;;;;;-0.24;82.33;100465.31;10460265;28;20136;-81
2021/12/26 19:04:19;;;;;;;17.50;9.40;;;;;;;-0.24;82.71;100448.47;10453481;28;20080;-82
2021/12/26 19:09:22;;;;;;;18.15;10.05;;;;;;;-0.13;81.95;100459.28;10428017;28;20049;-81
2021/12/26 19:14:23;;;;;;;24.63;10.88;;;;;;;-0.10;82.09;100456.91;10461806;28;20045;-82
2021/12/26 19:19:26;;;;;;;20.42;9.38;;;;;;;-0.07;82.27;100449.50;10482973;28;20466;-81
2021/12/26 19:24:28;;;;;;;16.33;9.23;;;;;;;-0.03;82.29;100446.38;10467121;28;20033;-81
2021/12/26 19:29:36;;;;;;;17.25;9.27;;;;;;;0.02;82.05;100454.25;10467092;28;20049;-81
2021/12/26 19:34:40;;;;;;;19.65;9.52;;;;;;;-0.01;82.58;100442.28;10458390;28;20064;-81
2021/12/26 19:39:43;;;;;;;18.00;9.52;;;;;;;-0.03;82.86;100443.84;10451181;28;20045;-81
2021/12/26 19:44:46;;;;;;;18.52;9.38;;;;;;;0.01;83.10;100441.50;10469668;28;20806;-82
2021/12/26 19:49:47;;;;;;;19.17;9.90;;;;;;;0.05;82.96;100449.38;10496665;28;20597;-81
2021/12/26 19:54:49;;;;;;;19.98;10.57;;;;;;;0.07;82.71;100457.06;10466495;28;20043;-81
2021/12/26 19:59:51;;;;;;;16.35;8.93;;;;;;;0.08;82.79;100448.69;10463824;28;20052;-82
2021/12/26 20:04:53;;;;;;;19.55;10.20;;;;;;;0.07;82.73;100446.94;10455825;28;20049;-82
2021/12/26 20:09:58;;;;;;;17.02;9.07;;;;;;;0.06;83.11;100447.72;10477130;28;20050;-82
2021/12/26 20:15:00;;;;;;;20.45;10.57;;;;;;;0.09;82.67;100452.97;10474561;28;20045;-81
2021/12/26 20:20:02;;;;;;;18.02;10.13;;;;;;;0.09;83.28;100445.38;10447090;28;20055;-81
2021/12/26 20:25:05;;;;;;;17.25;9.50;;;;;;;0.10;82.95;100437.00;10473403;28;20039;-82
2021/12/26 20:30:08;;;;;;;20.33;10.82;;;;;;;0.11;83.48;100433.69;10482911;28;20094;-82
2021/12/26 20:35:14;;;;;;;18.60;10.35;;;;;;;0.10;83.35;100431.94;10451195;28;20131;-81
2021/12/26 20:40:16;;;;;;;17.15;10.05;;;;;;;0.13;83.10;100443.13;10496786;28;20456;-81
2021/12/26 20:45:18;;;;;;;23.80;11.55;;;;;;;0.13;83.10;100448.19;10445440;28;20053;-81
2021/12/26 20:50:24;;;;;;;19.35;10.90;;;;;;;0.13;83.03;100430.47;10469712;28;20564;-81
2021/12/26 20:55:25;;;;;;;18.63;10.00;;;;;;;0.07;83.48;100427.56;10468389;28;20040;-81
2021/12/26 21:00:28;;;;;;;19.92;10.68;;;;;;;0.05;84.01;100423.16;10463330;28;20484;-82
2021/12/26 21:05:33;;;;;;;18.85;9.93;;;;;;;0.05;84.07;100420.63;10446276;28;20041;-82
2021/12/26 21:10:38;;;;;;;20.88;10.43;;;;;;;0.04;83.87;100411.31;10469692;28;20420;-81
2021/12/26 21:15:43;;;;;;;21.27;11.13;;;;;;;0.02;84.14;100402.72;10466746;28;20059;-81
2021/12/26 21:20:45;;;;;;;17.42;10.57;;;;;;;0.01;84.16;100406.03;10444127;28;20109;-82
2021/12/26 21:25:47;;;;;;;19.88;10.57;;;;;;;0.02;83.98;100400.19;10458842;28;20049;-82
2021/12/26 21:30:49;;;;;;;20.33;10.55;;;;;;;0.00;84.01;100392.53;10444302;28;20045;-82
2021/12/26 21:35:51;;;;;;;17.58;10.27;;;;;;;-0.01;84.48;100395.84;10466364;28;20060;-82
2021/12/26 21:40:53;;;;;;;21.08;10.90;;;;;;;-0.07;84.67;100386.19;10457303;28;20055;-82
2021/12/26 21:45:57;;;;;;;20.48;10.73;;;;;;;-0.11;84.76;100386.78;10460535;28;20080;-81
2021/12/26 21:51:05;;;;;;;19.75;9.80;;;;;;;-0.11;85.33;100381.72;10481037;28;20542;-82
2021/12/26 21:56:08;;;;;;;19.17;10.90;;;;;;;-0.06;85.19;100382.88;10444655;28;20052;-82
2021/12/26 22:01:10;;;;;;;17.80;10.45;;;;;;;-0.07;85.77;100377.72;10460319;28;20045;-81
2021/12/26 22:06:12;;;;;;;21.42;11.60;;;;;;;-0.04;85.69;100373.69;10460173;28;20541;-81
2021/12/26 22:11:14;;;;;;;21.25;10.63;;;;;;;-0.04;85.36;100368.63;10467528;28;20048;-82
2021/12/26 22:16:16;;;;;;;21.98;12.15;;;;;;;0.00;85.65;100364.66;10452424;28;20044;-82
2021/12/26 22:21:19;;;;;;;21.83;11.68;;;;;;;0.01;85.64;100355.38;10482584;28;20384;-82
2021/12/26 22:26:21;;;;;;;22.08;12.05;;;;;;;0.06;85.83;100359.06;10482814;28;20106;-82
2021/12/26 22:31:24;;;;;;;23.38;11.40;;;;;;;0.05;85.77;100367.44;10444936;28;20041;-82
2021/12/26 22:36:26;;;;;;;20.02;10.98;;;;;;;0.09;85.61;100355.06;10471993;28;20041;-83
2021/12/26 22:41:27;;;;;;;21.67;11.48;;;;;;;0.15;85.83;100362.16;10457785;28;20044;-83
2021/12/26 22:46:29;;;;;;;18.98;10.35;;;;;;;0.23;85.21;100362.59;10482548;28;20555;-83
2021/12/26 22:51:31;;;;;;;20.75;10.82;;;;;;;0.22;85.38;100361.72;10469236;28;20049;-82
2021/12/26 22:56:33;;;;;;;20.48;10.52;;;;;;;0.24;86.12;100359.28;10472803;28;20052;-83
2021/12/26 23:01:34;;;;;;;22.35;10.75;;;;;;;0.26;85.91;100363.63;10476974;28;20105;-83
2021/12/26 23:06:37;;;;;;;20.80;11.15;;;;;;;0.28;85.41;100362.06;10484497;28;20045;-83
2021/12/26 23:11:39;;;;;;;19.20;11.15;;;;;;;0.30;85.53;100350.38;10483739;28;20033;-83
2021/12/26 23:16:41;;;;;;;22.00;11.63;;;;;;;0.29;85.96;100347.78;10489014;28;20056;-83
2021/12/26 23:21:44;;;;;;;18.88;10.50;;;;;;;0.35;85.57;100337.09;10456369;28;20064;-83
2021/12/26 23:26:46;;;;;;;20.20;10.48;;;;;;;0.36;85.71;100333.78;10472553;28;20390;-83
2021/12/26 23:31:47;;;;;;;22.42;11.23;;;;;;;0.40;85.85;100330.66;10460002;28;20071;-83
2021/12/26 23:36:49;;;;;;;22.33;11.68;;;;;;;0.39;86.28;100316.22;10475715;28;20055;-83
2021/12/26 23:41:51;;;;;;;22.00;10.90;;;;;;;0.41;85.80;100312.13;10472796;28;20132;-83
2021/12/26 23:46:53;;;;;;;20.85;11.80;;;;;;;0.43;85.99;100313.06;10470632;28;20523;-83
2021/12/26 23:51:54;;;;;;;19.67;10.80;;;;;;;0.47;85.83;100312.47;10467902;28;20049;-83